Impacts TAF Board
For situational awareness. Not to be used for flight planning purposes.
IDs:

KCLE - Cleveland/Hopkins In, OH, US

Issued at 0526 UTC 20 Oct 2018
Updated at 0659 UTC 20 Oct 2018
Potential Impact None Slight Moderate High
Time0651Z 20/07Z 20/08Z 20/09Z 20/10Z 20/11Z 20/12Z 20/13Z 20/14Z 20/15Z 20/16Z 20/17Z 20/18Z 20/19Z>>
Type OBS PRVL PRVL PRVL PRVL PRVL PRVL PRVL PRVL PRVL PRVL PRVL PRVL PRVL
VIS 10 >6 >6 >6 >6 >6 >6 >6 >6 >6 >6 >6 >6 5
CIG 18 15 15 15 15 15 15 15 35 35 35 35 35 25
Cover OVC OVC OVC OVC OVC OVC OVC OVC BKN BKN BKN BKN BKN OVC
FltCat MVFR MVFR MVFR MVFR MVFR MVFR MVFR MVFR VFR VFR VFR VFR VFR MVFR
WX -- -- -- -- -- -- -- -- -- -- -- -- -- -SHRA
WDir 230 240 240 240 240 240 240 240 270 270 270 270 270 290
WSpd 11 14 14 14 14 14 14 14 14 14 14 14 14 18
WGst -- 22 22 22 22 22 22 22 25 25 25 25 25 28
Raw TAF
KCLE 200526Z 2006/2112 24014G22KT P6SM OVC015
  FM201400 27014G25KT P6SM BKN035
  FM201900 29018G28KT 5SM -SHRA OVC025
  FM210000 32020G34KT P6SM VCSH OVC025


Raw METAR
KCLE 200651Z 23011KT 10SM OVC018 10/07 A2980 RMK AO2 SLP093 T01000067
KCLE 200551Z 22010G18KT 10SM OVC018 09/06 A2982 RMK AO2 SLP098 60001 T00940061 10128 20094 56013
KCLE 200451Z 23015KT 10SM OVC021 10/06 A2983 RMK AO2 SLP100 T01000056 401560044
KCLE 200351Z 23014G24KT 10SM BKN027 OVC032 10/04 A2984 RMK AO2 SLP106 T01000044

METAR Board
Radar Display
Forecast Discussion
For situational awareness. Not to be used for flight planning purposes.